createdAt,value
2022-10-16T00:17:39.137Z,98.1
2022-10-16T00:37:03.913Z,98.1
2022-10-16T00:58:14.224Z,98.3
2022-10-16T01:18:31.288Z,98.4
2022-10-16T01:37:46.594Z,98.3
2022-10-16T01:57:40.098Z,98.6
2022-10-16T02:16:57.172Z,99.5
2022-10-16T02:38:07.711Z,99.9
2022-10-16T02:57:45.227Z,100
2022-10-16T03:17:17.952Z,100
2022-10-16T03:36:28.152Z,100
2022-10-16T03:56:47.356Z,100
2022-10-16T04:18:10.996Z,100
2022-10-16T04:36:04.066Z,100
2022-10-16T04:57:20.174Z,100
2022-10-16T05:18:22.779Z,100
2022-10-16T05:38:18.745Z,100
2022-10-16T05:57:17.303Z,100
2022-10-16T06:17:59.380Z,100
2022-10-16T06:36:42.704Z,100
2022-10-16T06:57:15.728Z,100
2022-10-16T07:17:11.715Z,100
2022-10-16T07:37:56.881Z,100
2022-10-16T07:57:59.450Z,100
2022-10-16T08:17:14.392Z,100
2022-10-16T08:38:21.265Z,99.1
2022-10-16T08:58:45.394Z,98
2022-10-16T09:16:54.889Z,96.8
2022-10-16T09:37:35.630Z,96.8
2022-10-16T09:57:06.161Z,94.1
2022-10-16T10:17:15.761Z,93.2
2022-10-16T10:37:21.346Z,88.7
2022-10-16T10:57:20.339Z,89.6
2022-10-16T11:17:03.254Z,93.4
2022-10-16T11:38:06.635Z,100
2022-10-16T11:58:38.120Z,100
2022-10-16T12:18:29.896Z,100
2022-10-16T12:38:06.031Z,100
2022-10-16T12:57:07.041Z,100
2022-10-16T13:18:29.618Z,100
2022-10-16T13:38:17.024Z,100
2022-10-16T13:57:46.949Z,100
2022-10-16T14:17:29.249Z,100
2022-10-16T14:37:16.125Z,100
2022-10-16T14:58:40.299Z,100
2022-10-16T15:17:08.051Z,100
2022-10-16T15:37:31.914Z,100
2022-10-16T15:58:23.078Z,100
2022-10-16T16:17:54.978Z,100
2022-10-16T16:37:00.869Z,100
2022-10-16T16:56:48.489Z,100
2022-10-16T17:18:22.424Z,100
2022-10-16T17:37:21.932Z,100
2022-10-16T17:56:48.232Z,100
2022-10-16T18:17:46.873Z,100
2022-10-16T18:37:59.802Z,100
2022-10-16T18:56:20.289Z,100
2022-10-16T19:17:05.260Z,100
2022-10-16T19:37:31.831Z,100
2022-10-16T19:57:56.420Z,100
2022-10-16T20:17:35.252Z,100
2022-10-16T20:38:03.235Z,100
2022-10-16T20:56:30.333Z,100
2022-10-16T21:18:22.408Z,100
2022-10-16T21:37:39.072Z,100
2022-10-16T21:57:15.642Z,100
2022-10-16T22:18:06.506Z,100
2022-10-16T22:37:19.109Z,100
2022-10-16T22:57:15.605Z,100
2022-10-16T23:17:47.216Z,100
2022-10-16T23:38:09.537Z,100
2022-10-16T23:57:28.578Z,100
